sensor_id;sensor_type;location;lat;lon;timestamp;temperature;humidity
48936;DHT22;34745;52.276;10.528;2023-03-23T00:02:11;13.40;1.00
48936;DHT22;34745;52.276;10.528;2023-03-23T00:04:37;13.40;1.00
48936;DHT22;34745;52.276;10.528;2023-03-23T00:07:03;13.40;1.00
48936;DHT22;34745;52.276;10.528;2023-03-23T00:09:30;13.40;1.00
48936;DHT22;34745;52.276;10.528;2023-03-23T00:12:00;13.40;1.00
48936;DHT22;34745;52.276;10.528;2023-03-23T00:14:31;13.50;1.00
48936;DHT22;34745;52.276;10.528;2023-03-23T00:17:07;13.50;1.00
48936;DHT22;34745;52.276;10.528;2023-03-23T00:19:36;13.50;1.00
48936;DHT22;34745;52.276;10.528;2023-03-23T00:22:12;13.50;1.00
48936;DHT22;34745;52.276;10.528;2023-03-23T00:24:40;13.50;1.00
48936;DHT22;34745;52.276;10.528;2023-03-23T00:27:05;13.50;1.00
48936;DHT22;34745;52.276;10.528;2023-03-23T00:29:32;13.50;1.00
48936;DHT22;34745;52.276;10.528;2023-03-23T00:31:57;13.50;1.00
48936;DHT22;34745;52.276;10.528;2023-03-23T00:34:24;13.50;1.00
48936;DHT22;34745;52.276;10.528;2023-03-23T00:36:52;13.50;1.00
48936;DHT22;34745;52.276;10.528;2023-03-23T00:39:19;13.50;1.00
48936;DHT22;34745;52.276;10.528;2023-03-23T00:41:46;13.50;1.00
48936;DHT22;34745;52.276;10.528;2023-03-23T00:44:13;13.50;1.00
48936;DHT22;34745;52.276;10.528;2023-03-23T00:46:42;13.40;1.00
48936;DHT22;34745;52.276;10.528;2023-03-23T00:49:12;13.40;1.00
48936;DHT22;34745;52.276;10.528;2023-03-23T00:51:38;13.40;1.00
48936;DHT22;34745;52.276;10.528;2023-03-23T00:54:04;13.30;1.00
48936;DHT22;34745;52.276;10.528;2023-03-23T00:56:30;13.30;1.00
48936;DHT22;34745;52.276;10.528;2023-03-23T00:58:57;13.30;1.00
48936;DHT22;34745;52.276;10.528;2023-03-23T01:01:23;13.20;1.00
48936;DHT22;34745;52.276;10.528;2023-03-23T01:03:49;13.10;1.00
48936;DHT22;34745;52.276;10.528;2023-03-23T01:06:15;13.00;1.00
48936;DHT22;34745;52.276;10.528;2023-03-23T01:08:41;13.00;1.00
48936;DHT22;34745;52.276;10.528;2023-03-23T01:11:12;12.90;1.00
48936;DHT22;34745;52.276;10.528;2023-03-23T01:13:39;13.00;1.00
48936;DHT22;34745;52.276;10.528;2023-03-23T01:16:08;12.90;1.00
48936;DHT22;34745;52.276;10.528;2023-03-23T01:18:34;12.90;1.00
48936;DHT22;34745;52.276;10.528;2023-03-23T01:21:04;12.90;1.00
48936;DHT22;34745;52.276;10.528;2023-03-23T01:23:32;12.80;1.00
48936;DHT22;34745;52.276;10.528;2023-03-23T01:25:57;12.90;1.00
48936;DHT22;34745;52.276;10.528;2023-03-23T01:28:27;12.80;1.00
48936;DHT22;34745;52.276;10.528;2023-03-23T01:30:53;12.70;1.00
48936;DHT22;34745;52.276;10.528;2023-03-23T01:33:25;12.70;1.00
48936;DHT22;34745;52.276;10.528;2023-03-23T01:35:51;12.60;1.00
48936;DHT22;34745;52.276;10.528;2023-03-23T01:38:17;12.70;1.00
48936;DHT22;34745;52.276;10.528;2023-03-23T01:40:43;12.60;1.00
48936;DHT22;34745;52.276;10.528;2023-03-23T01:43:13;12.60;1.00
48936;DHT22;34745;52.276;10.528;2023-03-23T01:45:40;12.60;1.00
48936;DHT22;34745;52.276;10.528;2023-03-23T01:48:14;12.60;1.00
48936;DHT22;34745;52.276;10.528;2023-03-23T01:50:50;12.70;1.00
48936;DHT22;34745;52.276;10.528;2023-03-23T01:53:18;12.80;1.00
48936;DHT22;34745;52.276;10.528;2023-03-23T01:55:48;12.70;1.00
48936;DHT22;34745;52.276;10.528;2023-03-23T01:58:17;12.70;1.00
48936;DHT22;34745;52.276;10.528;2023-03-23T02:00:44;12.60;1.00
48936;DHT22;34745;52.276;10.528;2023-03-23T02:03:12;12.50;1.00
48936;DHT22;34745;52.276;10.528;2023-03-23T02:05:40;12.50;1.00
48936;DHT22;34745;52.276;10.528;2023-03-23T02:08:08;12.40;1.00
48936;DHT22;34745;52.276;10.528;2023-03-23T02:10:36;12.50;1.00
48936;DHT22;34745;52.276;10.528;2023-03-23T02:13:04;12.40;1.00
48936;DHT22;34745;52.276;10.528;2023-03-23T02:15:43;12.40;1.00
48936;DHT22;34745;52.276;10.528;2023-03-23T02:18:27;12.40;1.00
48936;DHT22;34745;52.276;10.528;2023-03-23T02:21:16;12.40;1.00
48936;DHT22;34745;52.276;10.528;2023-03-23T02:24:03;12.40;4.90
48936;DHT22;34745;52.276;10.528;2023-03-23T02:26:46;12.40;1.00
48936;DHT22;34745;52.276;10.528;2023-03-23T02:29:39;12.40;1.00
48936;DHT22;34745;52.276;10.528;2023-03-23T02:32:16;12.40;1.00
48936;DHT22;34745;52.276;10.528;2023-03-23T02:34:49;12.40;1.00
48936;DHT22;34745;52.276;10.528;2023-03-23T02:37:22;12.40;1.00
48936;DHT22;34745;52.276;10.528;2023-03-23T02:39:52;12.50;1.00
48936;DHT22;34745;52.276;10.528;2023-03-23T02:42:24;12.50;1.00
48936;DHT22;34745;52.276;10.528;2023-03-23T02:44:53;12.50;1.00
48936;DHT22;34745;52.276;10.528;2023-03-23T02:47:22;12.40;1.00
48936;DHT22;34745;52.276;10.528;2023-03-23T02:49:53;12.50;1.00
48936;DHT22;34745;52.276;10.528;2023-03-23T02:52:22;12.60;1.00
48936;DHT22;34745;52.276;10.528;2023-03-23T02:54:50;12.40;1.00
48936;DHT22;34745;52.276;10.528;2023-03-23T02:57:17;12.40;1.00
48936;DHT22;34745;52.276;10.528;2023-03-23T02:59:45;12.40;1.00
48936;DHT22;34745;52.276;10.528;2023-03-23T03:02:13;12.50;1.00
48936;DHT22;34745;52.276;10.528;2023-03-23T03:04:42;12.40;1.00
48936;DHT22;34745;52.276;10.528;2023-03-23T03:07:35;12.50;1.00
48936;DHT22;34745;52.276;10.528;2023-03-23T03:10:08;12.40;2.50
48936;DHT22;34745;52.276;10.528;2023-03-23T03:12:43;12.50;6.00
48936;DHT22;34745;52.276;10.528;2023-03-23T03:15:17;12.40;11.90
48936;DHT22;34745;52.276;10.528;2023-03-23T03:17:49;12.40;14.20
48936;DHT22;34745;52.276;10.528;2023-03-23T03:20:17;12.40;18.90
48936;DHT22;34745;52.276;10.528;2023-03-23T03:22:46;12.40;28.70
48936;DHT22;34745;52.276;10.528;2023-03-23T03:25:14;12.40;40.90
48936;DHT22;34745;52.276;10.528;2023-03-23T03:27:44;12.20;57.00
48936;DHT22;34745;52.276;10.528;2023-03-23T03:30:13;12.10;88.60
48936;DHT22;34745;52.276;10.528;2023-03-23T03:32:43;12.10;99.90
48936;DHT22;34745;52.276;10.528;2023-03-23T03:35:12;12.00;99.90
48936;DHT22;34745;52.276;10.528;2023-03-23T03:37:38;12.00;99.90
48936;DHT22;34745;52.276;10.528;2023-03-23T03:40:10;12.00;99.90
48936;DHT22;34745;52.276;10.528;2023-03-23T03:42:38;12.00;99.90
48936;DHT22;34745;52.276;10.528;2023-03-23T03:45:05;11.90;99.90
48936;DHT22;34745;52.276;10.528;2023-03-23T03:47:31;11.90;99.90
48936;DHT22;34745;52.276;10.528;2023-03-23T03:49:57;11.80;99.90
48936;DHT22;34745;52.276;10.528;2023-03-23T03:52:23;11.80;99.90
48936;DHT22;34745;52.276;10.528;2023-03-23T03:54:49;11.90;99.90
48936;DHT22;34745;52.276;10.528;2023-03-23T03:57:16;11.80;99.90
48936;DHT22;34745;52.276;10.528;2023-03-23T03:59:43;11.70;99.90
48936;DHT22;34745;52.276;10.528;2023-03-23T04:02:09;11.80;99.90
48936;DHT22;34745;52.276;10.528;2023-03-23T04:04:39;11.70;99.90
48936;DHT22;34745;52.276;10.528;2023-03-23T04:07:06;11.70;99.90
48936;DHT22;34745;52.276;10.528;2023-03-23T04:09:31;11.70;99.90
48936;DHT22;34745;52.276;10.528;2023-03-23T04:11:57;11.80;99.90
48936;DHT22;34745;52.276;10.528;2023-03-23T04:14:25;11.80;99.90
48936;DHT22;34745;52.276;10.528;2023-03-23T04:16:51;11.80;99.90
48936;DHT22;34745;52.276;10.528;2023-03-23T04:19:22;11.80;99.90
48936;DHT22;34745;52.276;10.528;2023-03-23T04:21:48;11.70;99.90
48936;DHT22;34745;52.276;10.528;2023-03-23T04:24:14;11.70;99.90
48936;DHT22;34745;52.276;10.528;2023-03-23T04:26:40;11.60;99.90
48936;DHT22;34745;52.276;10.528;2023-03-23T04:29:07;11.60;99.90
48936;DHT22;34745;52.276;10.528;2023-03-23T04:31:35;11.70;99.90
48936;DHT22;34745;52.276;10.528;2023-03-23T04:34:01;11.60;99.90
48936;DHT22;34745;52.276;10.528;2023-03-23T04:36:27;11.60;99.90
48936;DHT22;34745;52.276;10.528;2023-03-23T04:38:54;11.60;99.90
48936;DHT22;34745;52.276;10.528;2023-03-23T04:41:20;11.60;99.90
48936;DHT22;34745;52.276;10.528;2023-03-23T04:43:46;11.50;99.90
48936;DHT22;34745;52.276;10.528;2023-03-23T04:46:19;11.50;99.90
48936;DHT22;34745;52.276;10.528;2023-03-23T04:48:48;11.60;99.90
48936;DHT22;34745;52.276;10.528;2023-03-23T04:51:14;11.70;99.90
48936;DHT22;34745;52.276;10.528;2023-03-23T04:53:40;11.60;99.90
48936;DHT22;34745;52.276;10.528;2023-03-23T04:56:06;11.60;99.90
48936;DHT22;34745;52.276;10.528;2023-03-23T04:58:32;11.70;99.90
48936;DHT22;34745;52.276;10.528;2023-03-23T05:00:59;11.70;99.90
48936;DHT22;34745;52.276;10.528;2023-03-23T05:03:26;11.70;99.90
48936;DHT22;34745;52.276;10.528;2023-03-23T05:05:53;11.70;99.90
48936;DHT22;34745;52.276;10.528;2023-03-23T05:08:19;11.80;99.90
48936;DHT22;34745;52.276;10.528;2023-03-23T05:10:53;11.80;99.90
48936;DHT22;34745;52.276;10.528;2023-03-23T05:13:20;11.80;99.90
48936;DHT22;34745;52.276;10.528;2023-03-23T05:15:47;11.70;99.90
48936;DHT22;34745;52.276;10.528;2023-03-23T05:18:13;11.70;99.90
48936;DHT22;34745;52.276;10.528;2023-03-23T05:20:40;11.60;99.90
48936;DHT22;34745;52.276;10.528;2023-03-23T05:23:09;11.50;99.90
48936;DHT22;34745;52.276;10.528;2023-03-23T05:25:35;11.50;99.90
48936;DHT22;34745;52.276;10.528;2023-03-23T05:28:05;11.40;99.90
48936;DHT22;34745;52.276;10.528;2023-03-23T05:30:32;11.40;99.90
48936;DHT22;34745;52.276;10.528;2023-03-23T05:32:57;11.40;99.90
48936;DHT22;34745;52.276;10.528;2023-03-23T05:35:23;11.40;99.90
48936;DHT22;34745;52.276;10.528;2023-03-23T05:37:49;11.60;99.90
48936;DHT22;34745;52.276;10.528;2023-03-23T05:40:17;11.40;99.90
48936;DHT22;34745;52.276;10.528;2023-03-23T05:42:42;11.50;99.90
48936;DHT22;34745;52.276;10.528;2023-03-23T05:45:11;11.50;99.90
48936;DHT22;34745;52.276;10.528;2023-03-23T05:47:38;11.50;99.90
48936;DHT22;34745;52.276;10.528;2023-03-23T05:50:05;11.50;99.90
48936;DHT22;34745;52.276;10.528;2023-03-23T05:52:32;11.50;99.90
48936;DHT22;34745;52.276;10.528;2023-03-23T05:54:58;11.50;99.90
48936;DHT22;34745;52.276;10.528;2023-03-23T05:57:26;11.50;99.90
48936;DHT22;34745;52.276;10.528;2023-03-23T05:59:52;11.60;99.90
48936;DHT22;34745;52.276;10.528;2023-03-23T06:02:18;11.60;99.90
48936;DHT22;34745;52.276;10.528;2023-03-23T06:04:44;11.60;99.90
48936;DHT22;34745;52.276;10.528;2023-03-23T06:07:10;11.60;99.90
48936;DHT22;34745;52.276;10.528;2023-03-23T06:09:40;11.70;99.90
48936;DHT22;34745;52.276;10.528;2023-03-23T06:12:07;11.70;99.90
48936;DHT22;34745;52.276;10.528;2023-03-23T06:14:35;11.70;99.90
48936;DHT22;34745;52.276;10.528;2023-03-23T06:17:01;11.70;99.90
48936;DHT22;34745;52.276;10.528;2023-03-23T06:19:27;11.80;99.90
48936;DHT22;34745;52.276;10.528;2023-03-23T06:21:54;11.80;99.90
48936;DHT22;34745;52.276;10.528;2023-03-23T06:24:20;11.80;99.90
48936;DHT22;34745;52.276;10.528;2023-03-23T06:26:46;11.80;99.90
48936;DHT22;34745;52.276;10.528;2023-03-23T06:29:13;11.80;99.90
48936;DHT22;34745;52.276;10.528;2023-03-23T06:31:43;11.90;99.90
48936;DHT22;34745;52.276;10.528;2023-03-23T06:34:10;11.90;99.90
48936;DHT22;34745;52.276;10.528;2023-03-23T06:36:37;11.80;99.90
48936;DHT22;34745;52.276;10.528;2023-03-23T06:39:04;11.90;99.90
48936;DHT22;34745;52.276;10.528;2023-03-23T06:41:30;11.80;99.90
48936;DHT22;34745;52.276;10.528;2023-03-23T06:43:56;11.80;99.90
48936;DHT22;34745;52.276;10.528;2023-03-23T06:46:22;11.80;99.90
48936;DHT22;34745;52.276;10.528;2023-03-23T06:48:50;11.80;99.90
48936;DHT22;34745;52.276;10.528;2023-03-23T06:51:16;11.80;99.90
48936;DHT22;34745;52.276;10.528;2023-03-23T06:53:43;11.80;99.90
48936;DHT22;34745;52.276;10.528;2023-03-23T06:56:08;11.80;99.90
48936;DHT22;34745;52.276;10.528;2023-03-23T06:58:34;11.80;99.90
48936;DHT22;34745;52.276;10.528;2023-03-23T07:01:00;11.90;99.90
48936;DHT22;34745;52.276;10.528;2023-03-23T07:03:27;11.80;99.90
48936;DHT22;34745;52.276;10.528;2023-03-23T07:05:54;11.80;99.90
48936;DHT22;34745;52.276;10.528;2023-03-23T07:08:21;11.90;99.90
48936;DHT22;34745;52.276;10.528;2023-03-23T07:10:46;11.90;99.90
48936;DHT22;34745;52.276;10.528;2023-03-23T07:13:12;12.10;99.90
48936;DHT22;34745;52.276;10.528;2023-03-23T07:15:38;12.30;99.90
48936;DHT22;34745;52.276;10.528;2023-03-23T07:18:04;12.50;99.90
48936;DHT22;34745;52.276;10.528;2023-03-23T07:20:30;12.60;99.90
48936;DHT22;34745;52.276;10.528;2023-03-23T07:22:58;12.70;99.90
48936;DHT22;34745;52.276;10.528;2023-03-23T07:25:24;12.70;99.90
48936;DHT22;34745;52.276;10.528;2023-03-23T07:27:50;12.70;98.40
48936;DHT22;34745;52.276;10.528;2023-03-23T07:30:16;12.60;78.30
48936;DHT22;34745;52.276;10.528;2023-03-23T07:32:43;12.60;93.30
48936;DHT22;34745;52.276;10.528;2023-03-23T07:35:09;12.60;92.60
48936;DHT22;34745;52.276;10.528;2023-03-23T07:37:35;12.50;85.90
48936;DHT22;34745;52.276;10.528;2023-03-23T07:40:03;12.60;99.90
48936;DHT22;34745;52.276;10.528;2023-03-23T07:42:41;12.50;99.90
48936;DHT22;34745;52.276;10.528;2023-03-23T07:45:08;12.60;99.90
48936;DHT22;34745;52.276;10.528;2023-03-23T07:47:35;12.50;93.50
48936;DHT22;34745;52.276;10.528;2023-03-23T07:50:00;12.50;97.40
48936;DHT22;34745;52.276;10.528;2023-03-23T07:52:27;12.60;99.90
48936;DHT22;34745;52.276;10.528;2023-03-23T07:54:52;12.60;96.80
48936;DHT22;34745;52.276;10.528;2023-03-23T07:57:20;12.60;98.30
48936;DHT22;34745;52.276;10.528;2023-03-23T07:59:46;12.50;98.70
48936;DHT22;34745;52.276;10.528;2023-03-23T08:02:12;12.60;99.90
48936;DHT22;34745;52.276;10.528;2023-03-23T08:04:39;12.60;94.20
48936;DHT22;34745;52.276;10.528;2023-03-23T08:07:05;12.70;85.10
48936;DHT22;34745;52.276;10.528;2023-03-23T08:09:31;12.90;70.90
48936;DHT22;34745;52.276;10.528;2023-03-23T08:11:57;13.00;57.50
48936;DHT22;34745;52.276;10.528;2023-03-23T08:14:24;13.00;40.70
48936;DHT22;34745;52.276;10.528;2023-03-23T08:16:53;13.20;34.50
48936;DHT22;34745;52.276;10.528;2023-03-23T08:19:21;13.20;30.30
48936;DHT22;34745;52.276;10.528;2023-03-23T08:21:47;13.20;24.70
48936;DHT22;34745;52.276;10.528;2023-03-23T08:24:14;13.30;21.90
48936;DHT22;34745;52.276;10.528;2023-03-23T08:26:41;13.30;10.70
48936;DHT22;34745;52.276;10.528;2023-03-23T08:29:07;13.40;8.10
48936;DHT22;34745;52.276;10.528;2023-03-23T08:31:35;13.40;4.00
48936;DHT22;34745;52.276;10.528;2023-03-23T08:34:03;13.60;1.00
48936;DHT22;34745;52.276;10.528;2023-03-23T08:36:30;13.50;1.00
48936;DHT22;34745;52.276;10.528;2023-03-23T08:38:57;13.70;1.00
48936;DHT22;34745;52.276;10.528;2023-03-23T08:41:24;13.70;1.00
48936;DHT22;34745;52.276;10.528;2023-03-23T08:43:50;13.90;1.00
48936;DHT22;34745;52.276;10.528;2023-03-23T08:46:18;14.00;1.00
48936;DHT22;34745;52.276;10.528;2023-03-23T08:48:46;13.70;1.00
48936;DHT22;34745;52.276;10.528;2023-03-23T08:51:12;13.70;1.00
48936;DHT22;34745;52.276;10.528;2023-03-23T08:53:39;13.90;1.00
48936;DHT22;34745;52.276;10.528;2023-03-23T08:56:06;13.80;1.00
48936;DHT22;34745;52.276;10.528;2023-03-23T08:58:33;13.80;1.00
48936;DHT22;34745;52.276;10.528;2023-03-23T09:01:00;13.70;1.00
48936;DHT22;34745;52.276;10.528;2023-03-23T09:03:26;13.80;1.00
48936;DHT22;34745;52.276;10.528;2023-03-23T09:05:57;13.80;1.00
48936;DHT22;34745;52.276;10.528;2023-03-23T09:08:23;13.80;1.00
48936;DHT22;34745;52.276;10.528;2023-03-23T09:10:49;13.90;1.00
48936;DHT22;34745;52.276;10.528;2023-03-23T09:13:15;13.90;1.00
48936;DHT22;34745;52.276;10.528;2023-03-23T09:15:41;14.00;1.00
48936;DHT22;34745;52.276;10.528;2023-03-23T09:18:07;14.00;1.00
48936;DHT22;34745;52.276;10.528;2023-03-23T09:20:33;14.20;1.00
48936;DHT22;34745;52.276;10.528;2023-03-23T09:23:03;14.20;1.00
48936;DHT22;34745;52.276;10.528;2023-03-23T09:25:31;14.20;1.00
48936;DHT22;34745;52.276;10.528;2023-03-23T09:27:58;14.10;1.00
48936;DHT22;34745;52.276;10.528;2023-03-23T09:30:28;14.10;1.00
48936;DHT22;34745;52.276;10.528;2023-03-23T09:32:54;14.10;1.00
48936;DHT22;34745;52.276;10.528;2023-03-23T09:35:21;14.10;1.00
48936;DHT22;34745;52.276;10.528;2023-03-23T09:37:48;14.20;1.00
48936;DHT22;34745;52.276;10.528;2023-03-23T09:40:19;14.20;1.00
48936;DHT22;34745;52.276;10.528;2023-03-23T09:42:56;14.20;1.00
48936;DHT22;34745;52.276;10.528;2023-03-23T09:45:27;14.10;1.00
48936;DHT22;34745;52.276;10.528;2023-03-23T09:48:05;14.20;1.00
48936;DHT22;34745;52.276;10.528;2023-03-23T09:50:35;14.20;1.00
48936;DHT22;34745;52.276;10.528;2023-03-23T09:53:10;14.20;1.00
48936;DHT22;34745;52.276;10.528;2023-03-23T09:55:40;14.20;1.00
48936;DHT22;34745;52.276;10.528;2023-03-23T09:58:12;14.20;1.00
48936;DHT22;34745;52.276;10.528;2023-03-23T10:00:45;14.20;1.00
48936;DHT22;34745;52.276;10.528;2023-03-23T10:03:14;14.30;1.00
48936;DHT22;34745;52.276;10.528;2023-03-23T10:05:46;14.30;1.00
48936;DHT22;34745;52.276;10.528;2023-03-23T10:08:13;14.30;1.00
48936;DHT22;34745;52.276;10.528;2023-03-23T10:10:57;14.30;1.00
48936;DHT22;34745;52.276;10.528;2023-03-23T10:13:34;14.40;1.00
48936;DHT22;34745;52.276;10.528;2023-03-23T10:16:08;14.30;1.00
48936;DHT22;34745;52.276;10.528;2023-03-23T10:18:40;14.30;1.00
48936;DHT22;34745;52.276;10.528;2023-03-23T10:21:11;14.40;1.00
48936;DHT22;34745;52.276;10.528;2023-03-23T10:23:49;14.40;1.00
48936;DHT22;34745;52.276;10.528;2023-03-23T10:26:37;14.40;1.00
48936;DHT22;34745;52.276;10.528;2023-03-23T10:29:14;14.50;1.00
48936;DHT22;34745;52.276;10.528;2023-03-23T10:31:43;14.50;1.00
48936;DHT22;34745;52.276;10.528;2023-03-23T10:34:15;14.50;1.00
48936;DHT22;34745;52.276;10.528;2023-03-23T10:36:54;14.60;1.00
48936;DHT22;34745;52.276;10.528;2023-03-23T10:39:23;14.70;1.00
48936;DHT22;34745;52.276;10.528;2023-03-23T10:41:51;14.80;1.00
48936;DHT22;34745;52.276;10.528;2023-03-23T10:44:19;14.80;1.00
48936;DHT22;34745;52.276;10.528;2023-03-23T10:46:51;15.00;1.00
48936;DHT22;34745;52.276;10.528;2023-03-23T10:49:22;15.00;1.00
48936;DHT22;34745;52.276;10.528;2023-03-23T10:51:57;15.00;1.00
48936;DHT22;34745;52.276;10.528;2023-03-23T10:54:27;14.90;1.00
48936;DHT22;34745;52.276;10.528;2023-03-23T10:56:55;15.00;1.00
48936;DHT22;34745;52.276;10.528;2023-03-23T10:59:27;15.10;1.00
48936;DHT22;34745;52.276;10.528;2023-03-23T11:01:55;15.00;1.00
48936;DHT22;34745;52.276;10.528;2023-03-23T11:04:22;14.90;1.00
48936;DHT22;34745;52.276;10.528;2023-03-23T11:06:51;14.90;1.00
48936;DHT22;34745;52.276;10.528;2023-03-23T11:09:19;14.90;1.00
48936;DHT22;34745;52.276;10.528;2023-03-23T11:11:49;15.00;1.00
48936;DHT22;34745;52.276;10.528;2023-03-23T11:14:18;14.90;1.00
48936;DHT22;34745;52.276;10.528;2023-03-23T11:16:50;14.90;1.00
48936;DHT22;34745;52.276;10.528;2023-03-23T11:19:23;15.00;1.00
48936;DHT22;34745;52.276;10.528;2023-03-23T11:21:51;15.00;1.00
48936;DHT22;34745;52.276;10.528;2023-03-23T11:24:18;15.20;1.00
48936;DHT22;34745;52.276;10.528;2023-03-23T11:26:46;15.40;1.00
48936;DHT22;34745;52.276;10.528;2023-03-23T11:29:17;15.90;1.00
48936;DHT22;34745;52.276;10.528;2023-03-23T11:31:45;16.10;1.00
48936;DHT22;34745;52.276;10.528;2023-03-23T11:34:16;16.20;1.00
48936;DHT22;34745;52.276;10.528;2023-03-23T11:36:48;16.30;1.00
48936;DHT22;34745;52.276;10.528;2023-03-23T11:39:20;16.50;1.00
48936;DHT22;34745;52.276;10.528;2023-03-23T11:41:47;17.10;1.00
48936;DHT22;34745;52.276;10.528;2023-03-23T11:44:14;17.80;1.00
48936;DHT22;34745;52.276;10.528;2023-03-23T11:46:48;18.30;1.00
48936;DHT22;34745;52.276;10.528;2023-03-23T11:49:24;18.70;1.00
48936;DHT22;34745;52.276;10.528;2023-03-23T11:51:54;19.00;1.00
48936;DHT22;34745;52.276;10.528;2023-03-23T11:54:28;19.20;1.00
48936;DHT22;34745;52.276;10.528;2023-03-23T11:56:56;18.90;1.00
48936;DHT22;34745;52.276;10.528;2023-03-23T11:59:28;18.30;1.00
48936;DHT22;34745;52.276;10.528;2023-03-23T12:02:06;18.60;1.00
48936;DHT22;34745;52.276;10.528;2023-03-23T12:04:50;18.30;1.00
48936;DHT22;34745;52.276;10.528;2023-03-23T12:07:36;17.70;1.00
48936;DHT22;34745;52.276;10.528;2023-03-23T12:10:14;18.50;1.00
48936;DHT22;34745;52.276;10.528;2023-03-23T12:12:49;18.30;1.00
48936;DHT22;34745;52.276;10.528;2023-03-23T12:15:22;17.20;1.00
48936;DHT22;34745;52.276;10.528;2023-03-23T12:17:58;17.70;1.00
48936;DHT22;34745;52.276;10.528;2023-03-23T12:20:32;19.70;1.00
48936;DHT22;34745;52.276;10.528;2023-03-23T12:23:18;19.70;1.00
48936;DHT22;34745;52.276;10.528;2023-03-23T12:26:01;19.40;1.00
48936;DHT22;34745;52.276;10.528;2023-03-23T12:28:39;18.20;1.00
48936;DHT22;34745;52.276;10.528;2023-03-23T12:31:13;17.40;1.00
48936;DHT22;34745;52.276;10.528;2023-03-23T12:33:52;17.30;1.00
48936;DHT22;34745;52.276;10.528;2023-03-23T12:36:30;17.20;1.00
48936;DHT22;34745;52.276;10.528;2023-03-23T12:42:07;19.00;1.00
48936;DHT22;34745;52.276;10.528;2023-03-23T12:44:41;18.30;1.00
48936;DHT22;34745;52.276;10.528;2023-03-23T12:47:26;17.80;1.00
48936;DHT22;34745;52.276;10.528;2023-03-23T12:50:00;17.20;1.00
48936;DHT22;34745;52.276;10.528;2023-03-23T12:52:32;16.80;1.00
48936;DHT22;34745;52.276;10.528;2023-03-23T12:55:03;16.50;1.00
48936;DHT22;34745;52.276;10.528;2023-03-23T12:57:33;16.20;1.00
48936;DHT22;34745;52.276;10.528;2023-03-23T13:00:05;16.20;1.00
48936;DHT22;34745;52.276;10.528;2023-03-23T13:02:41;16.10;1.00
48936;DHT22;34745;52.276;10.528;2023-03-23T13:05:13;16.00;1.00
48936;DHT22;34745;52.276;10.528;2023-03-23T13:07:43;15.90;1.00
48936;DHT22;34745;52.276;10.528;2023-03-23T13:10:18;15.90;1.00
48936;DHT22;34745;52.276;10.528;2023-03-23T13:12:45;15.80;1.00
48936;DHT22;34745;52.276;10.528;2023-03-23T13:15:22;15.70;1.00
48936;DHT22;34745;52.276;10.528;2023-03-23T13:17:56;15.60;1.00
48936;DHT22;34745;52.276;10.528;2023-03-23T13:20:38;15.70;1.00
48936;DHT22;34745;52.276;10.528;2023-03-23T13:23:11;15.70;1.00
48936;DHT22;34745;52.276;10.528;2023-03-23T13:25:54;15.70;1.00
48936;DHT22;34745;52.276;10.528;2023-03-23T13:28:26;15.60;1.00
48936;DHT22;34745;52.276;10.528;2023-03-23T13:30:59;15.50;1.00
48936;DHT22;34745;52.276;10.528;2023-03-23T13:33:28;15.20;1.00
48936;DHT22;34745;52.276;10.528;2023-03-23T13:35:56;15.00;1.00
48936;DHT22;34745;52.276;10.528;2023-03-23T13:38:25;14.80;1.00
48936;DHT22;34745;52.276;10.528;2023-03-23T13:40:52;14.60;1.00
48936;DHT22;34745;52.276;10.528;2023-03-23T13:43:27;14.40;1.00
48936;DHT22;34745;52.276;10.528;2023-03-23T13:45:54;14.40;1.00
48936;DHT22;34745;52.276;10.528;2023-03-23T13:48:24;14.20;1.00
48936;DHT22;34745;52.276;10.528;2023-03-23T13:50:53;14.10;1.00
48936;DHT22;34745;52.276;10.528;2023-03-23T13:53:26;13.90;1.00
48936;DHT22;34745;52.276;10.528;2023-03-23T13:56:15;13.90;1.00
48936;DHT22;34745;52.276;10.528;2023-03-23T13:58:47;14.30;1.00
48936;DHT22;34745;52.276;10.528;2023-03-23T14:01:16;14.60;1.00
48936;DHT22;34745;52.276;10.528;2023-03-23T14:03:45;14.70;1.00
48936;DHT22;34745;52.276;10.528;2023-03-23T14:06:18;14.60;1.00
48936;DHT22;34745;52.276;10.528;2023-03-23T14:08:50;14.70;1.00
48936;DHT22;34745;52.276;10.528;2023-03-23T14:11:20;14.90;1.00
48936;DHT22;34745;52.276;10.528;2023-03-23T14:13:59;14.90;1.00
48936;DHT22;34745;52.276;10.528;2023-03-23T14:16:32;15.00;1.00
48936;DHT22;34745;52.276;10.528;2023-03-23T14:19:00;15.20;1.00
48936;DHT22;34745;52.276;10.528;2023-03-23T14:21:33;16.10;1.00
48936;DHT22;34745;52.276;10.528;2023-03-23T14:24:03;17.20;1.00
48936;DHT22;34745;52.276;10.528;2023-03-23T14:26:34;17.10;1.00
48936;DHT22;34745;52.276;10.528;2023-03-23T14:29:02;16.40;1.00
48936;DHT22;34745;52.276;10.528;2023-03-23T14:31:28;15.90;1.00
48936;DHT22;34745;52.276;10.528;2023-03-23T14:33:56;15.30;1.00
48936;DHT22;34745;52.276;10.528;2023-03-23T14:36:23;14.80;1.00
48936;DHT22;34745;52.276;10.528;2023-03-23T14:38:59;14.40;1.00
48936;DHT22;34745;52.276;10.528;2023-03-23T14:41:29;14.00;1.00
48936;DHT22;34745;52.276;10.528;2023-03-23T14:43:57;14.00;1.00
48936;DHT22;34745;52.276;10.528;2023-03-23T14:46:25;13.90;1.00
48936;DHT22;34745;52.276;10.528;2023-03-23T14:48:51;13.80;1.00
48936;DHT22;34745;52.276;10.528;2023-03-23T14:51:19;13.60;1.00
48936;DHT22;34745;52.276;10.528;2023-03-23T14:53:46;13.40;1.00
48936;DHT22;34745;52.276;10.528;2023-03-23T14:56:15;13.30;1.00
48936;DHT22;34745;52.276;10.528;2023-03-23T14:58:45;13.20;1.00
48936;DHT22;34745;52.276;10.528;2023-03-23T15:01:14;13.10;1.00
48936;DHT22;34745;52.276;10.528;2023-03-23T15:03:43;13.00;1.00
48936;DHT22;34745;52.276;10.528;2023-03-23T15:06:13;13.00;1.00
48936;DHT22;34745;52.276;10.528;2023-03-23T15:08:40;12.90;2.00
48936;DHT22;34745;52.276;10.528;2023-03-23T15:11:11;12.80;31.00
48936;DHT22;34745;52.276;10.528;2023-03-23T15:13:41;12.80;37.10
48936;DHT22;34745;52.276;10.528;2023-03-23T15:16:14;12.60;53.20
48936;DHT22;34745;52.276;10.528;2023-03-23T15:18:47;12.50;53.50
48936;DHT22;34745;52.276;10.528;2023-03-23T15:21:21;12.50;76.90
48936;DHT22;34745;52.276;10.528;2023-03-23T15:23:48;12.40;77.70
48936;DHT22;34745;52.276;10.528;2023-03-23T15:26:32;12.40;90.60
48936;DHT22;34745;52.276;10.528;2023-03-23T15:29:10;12.50;99.90
48936;DHT22;34745;52.276;10.528;2023-03-23T15:31:40;12.60;96.00
48936;DHT22;34745;52.276;10.528;2023-03-23T15:34:15;12.50;78.10
48936;DHT22;34745;52.276;10.528;2023-03-23T15:36:42;12.70;84.10
48936;DHT22;34745;52.276;10.528;2023-03-23T15:39:11;12.70;74.40
48936;DHT22;34745;52.276;10.528;2023-03-23T15:41:46;12.70;76.90
48936;DHT22;34745;52.276;10.528;2023-03-23T15:44:27;12.70;72.90